createdAt,value
2018-12-31T00:01:38.791Z,4.90
2018-12-31T00:04:06.305Z,4.90
2018-12-31T00:06:33.826Z,4.90
2018-12-31T00:09:01.389Z,4.80
2018-12-31T00:11:28.893Z,4.80
2018-12-31T00:13:56.395Z,4.80
2018-12-31T00:16:23.956Z,4.80
2018-12-31T00:18:51.451Z,4.80
2018-12-31T00:21:18.958Z,4.80
2018-12-31T00:23:46.514Z,4.80
2018-12-31T00:26:14.025Z,4.70
2018-12-31T00:28:41.539Z,4.70
2018-12-31T00:31:09.099Z,4.70
2018-12-31T00:33:36.611Z,4.70
2018-12-31T00:36:04.122Z,4.80
2018-12-31T00:38:31.662Z,4.80
2018-12-31T00:40:59.172Z,4.70
2018-12-31T00:43:26.706Z,4.70
2018-12-31T00:45:54.249Z,4.80
2018-12-31T00:48:21.743Z,4.70
2018-12-31T00:50:49.258Z,4.70
2018-12-31T00:53:16.789Z,4.70
2018-12-31T00:55:44.294Z,4.70
2018-12-31T00:58:11.781Z,4.60
2018-12-31T01:00:39.327Z,4.60
2018-12-31T01:03:06.830Z,4.60
2018-12-31T01:05:34.310Z,4.60
2018-12-31T01:08:01.845Z,4.60
2018-12-31T01:10:29.349Z,4.60
2018-12-31T01:12:56.853Z,4.60
2018-12-31T01:15:24.413Z,4.60
2018-12-31T01:17:51.901Z,4.60
2018-12-31T01:20:19.411Z,4.60
2018-12-31T01:22:46.969Z,4.60
2018-12-31T01:25:14.464Z,4.70
2018-12-31T01:27:41.957Z,4.60
2018-12-31T01:30:09.488Z,4.60
2018-12-31T01:32:36.983Z,4.70
2018-12-31T01:35:04.595Z,4.60
2018-12-31T01:37:32.135Z,4.60
2018-12-31T01:39:59.621Z,4.60
2018-12-31T01:42:27.123Z,4.60
2018-12-31T01:44:54.670Z,4.60
2018-12-31T01:47:22.165Z,4.60
2018-12-31T01:49:49.664Z,4.50
2018-12-31T01:52:17.212Z,4.50
2018-12-31T01:54:44.690Z,4.50
2018-12-31T01:57:12.207Z,4.50
2018-12-31T01:59:39.756Z,4.50
2018-12-31T02:02:07.236Z,4.60
2018-12-31T02:04:34.725Z,4.50
2018-12-31T02:07:02.322Z,4.50
2018-12-31T02:09:29.824Z,4.50
2018-12-31T02:11:57.301Z,4.50
2018-12-31T02:14:24.931Z,4.40
2018-12-31T02:16:52.421Z,4.50
2018-12-31T02:19:19.926Z,4.60
2018-12-31T02:21:47.448Z,4.60
2018-12-31T02:24:14.942Z,4.50
2018-12-31T02:26:42.448Z,4.50
2018-12-31T02:29:09.950Z,4.50
2018-12-31T02:31:37.464Z,4.40
2018-12-31T02:34:04.983Z,4.40
2018-12-31T02:36:32.510Z,4.40
2018-12-31T02:39:00.012Z,4.40
2018-12-31T02:41:27.501Z,4.40
2018-12-31T02:43:55.022Z,4.40
2018-12-31T02:46:22.570Z,4.40
2018-12-31T02:48:50.084Z,4.40
2018-12-31T02:51:17.632Z,4.40
2018-12-31T02:53:45.110Z,4.40
2018-12-31T02:56:12.608Z,4.30
2018-12-31T02:58:40.149Z,4.30
2018-12-31T03:01:07.642Z,4.30
2018-12-31T03:03:35.124Z,4.40
2018-12-31T03:06:02.652Z,4.30
2018-12-31T03:08:30.145Z,4.20
2018-12-31T03:10:57.638Z,4.10
2018-12-31T03:13:25.162Z,4.10
2018-12-31T03:15:52.668Z,4.00
2018-12-31T03:18:20.151Z,4.00
2018-12-31T03:20:47.682Z,4.00
2018-12-31T03:23:15.167Z,4.00
2018-12-31T03:25:42.652Z,3.90
2018-12-31T03:28:10.208Z,4.10
2018-12-31T03:30:38.102Z,3.90
2018-12-31T03:33:05.606Z,3.90
2018-12-31T03:35:33.149Z,3.90
2018-12-31T03:38:00.657Z,3.90
2018-12-31T03:40:28.641Z,3.80
2018-12-31T03:42:56.199Z,3.80
2018-12-31T03:45:23.721Z,3.80
2018-12-31T03:47:51.221Z,3.70
2018-12-31T03:50:18.755Z,3.90
2018-12-31T03:52:46.237Z,3.70
2018-12-31T03:55:13.713Z,3.70
2018-12-31T03:57:41.240Z,3.60
2018-12-31T04:00:08.768Z,3.50
2018-12-31T04:02:36.256Z,3.50
2018-12-31T04:05:03.975Z,3.60
2018-12-31T04:07:31.488Z,3.60
2018-12-31T04:09:58.995Z,3.50
2018-12-31T04:12:26.509Z,3.40
2018-12-31T04:14:54.221Z,3.40
2018-12-31T04:17:21.709Z,3.40
2018-12-31T04:19:49.221Z,3.40
2018-12-31T04:22:16.741Z,3.30
2018-12-31T04:24:44.238Z,3.30
2018-12-31T04:27:11.750Z,3.30
2018-12-31T04:29:39.266Z,3.40
2018-12-31T04:32:06.767Z,3.30
2018-12-31T04:34:34.251Z,3.30
2018-12-31T04:37:01.788Z,3.30
2018-12-31T04:39:29.280Z,3.30
2018-12-31T04:41:56.767Z,3.30
2018-12-31T04:44:24.311Z,3.40
2018-12-31T04:46:51.877Z,3.40
2018-12-31T04:49:19.366Z,3.30
2018-12-31T04:51:46.922Z,3.20
2018-12-31T04:54:14.424Z,3.20
2018-12-31T04:56:41.916Z,3.30
2018-12-31T04:59:09.462Z,3.30
2018-12-31T05:01:36.958Z,3.30
2018-12-31T05:04:04.441Z,3.30
2018-12-31T05:06:31.965Z,3.20
2018-12-31T05:08:59.455Z,3.20
2018-12-31T05:11:26.947Z,3.20
2018-12-31T05:13:54.485Z,3.20
2018-12-31T05:16:21.978Z,3.20
2018-12-31T05:18:49.457Z,3.20
2018-12-31T05:21:16.989Z,3.10
2018-12-31T05:23:44.504Z,3.10
2018-12-31T05:26:11.984Z,3.20
2018-12-31T05:28:39.519Z,3.20
2018-12-31T05:31:07.018Z,3.20
2018-12-31T05:33:34.505Z,3.10
2018-12-31T05:36:02.018Z,3.10
2018-12-31T05:38:29.902Z,3.10
2018-12-31T05:40:57.401Z,3.10
2018-12-31T05:43:24.903Z,3.00
2018-12-31T05:45:52.433Z,3.00
2018-12-31T05:48:20.005Z,3.00
2018-12-31T05:50:47.498Z,3.00
2018-12-31T05:53:14.993Z,3.10
2018-12-31T05:55:42.525Z,3.00
2018-12-31T05:58:10.005Z,3.00
2018-12-31T06:00:37.521Z,3.00
2018-12-31T06:03:05.025Z,3.00
2018-12-31T06:05:32.526Z,3.00
2018-12-31T06:08:00.021Z,3.00
2018-12-31T06:10:27.561Z,3.00
2018-12-31T06:12:55.048Z,2.90
2018-12-31T06:15:22.535Z,3.20
2018-12-31T06:17:50.061Z,3.00
2018-12-31T06:20:17.577Z,3.00
2018-12-31T06:22:45.061Z,2.90
2018-12-31T06:25:12.602Z,3.00
2018-12-31T06:27:40.090Z,2.90
2018-12-31T06:30:07.566Z,2.80
2018-12-31T06:32:35.093Z,2.90
2018-12-31T06:35:02.577Z,2.90
2018-12-31T06:37:30.059Z,3.00
2018-12-31T06:39:57.621Z,2.90
2018-12-31T06:42:25.119Z,2.90
2018-12-31T06:44:52.612Z,2.90
2018-12-31T06:47:20.165Z,2.90
2018-12-31T06:49:47.658Z,2.90
2018-12-31T06:52:15.158Z,3.00
2018-12-31T06:54:42.705Z,2.90
2018-12-31T06:57:10.197Z,2.90
2018-12-31T06:59:37.689Z,2.90
2018-12-31T07:02:05.263Z,2.80
2018-12-31T07:04:32.761Z,2.80
2018-12-31T07:07:00.255Z,2.90
2018-12-31T07:09:27.780Z,2.90
2018-12-31T07:11:55.269Z,3.00
2018-12-31T07:14:22.776Z,2.90
2018-12-31T07:16:50.300Z,2.90
2018-12-31T07:19:17.793Z,2.90
2018-12-31T07:21:45.279Z,2.90
2018-12-31T07:24:12.788Z,2.90
2018-12-31T07:26:40.344Z,3.00
2018-12-31T07:29:07.825Z,2.90
2018-12-31T07:31:35.380Z,2.90
2018-12-31T07:34:02.876Z,3.00
2018-12-31T07:36:30.611Z,2.90
2018-12-31T07:38:58.147Z,2.90
2018-12-31T07:41:25.724Z,2.90
2018-12-31T07:43:53.217Z,3.00
2018-12-31T07:46:20.762Z,3.00
2018-12-31T07:48:48.355Z,3.10
2018-12-31T07:51:15.902Z,3.00
2018-12-31T07:53:43.445Z,3.10
2018-12-31T07:56:10.962Z,3.00
2018-12-31T07:58:38.478Z,2.90
2018-12-31T08:01:06.014Z,3.00
2018-12-31T08:03:33.556Z,2.90
2018-12-31T08:06:01.918Z,3.00
2018-12-31T08:08:29.437Z,3.00
2018-12-31T08:10:57.192Z,2.90
2018-12-31T08:13:25.402Z,2.90
2018-12-31T08:15:52.956Z,3.00
2018-12-31T08:18:20.455Z,3.10
2018-12-31T08:20:48.024Z,3.10
2018-12-31T08:23:15.629Z,3.10
2018-12-31T08:25:43.144Z,3.10
2018-12-31T08:28:12.317Z,3.10
2018-12-31T08:30:39.842Z,3.20
2018-12-31T08:33:07.462Z,3.20
2018-12-31T08:35:35.012Z,3.20
2018-12-31T08:38:02.513Z,3.30
2018-12-31T08:40:30.023Z,3.20
2018-12-31T08:42:57.575Z,3.20
2018-12-31T08:45:25.073Z,3.30
2018-12-31T08:47:52.702Z,3.30
2018-12-31T08:50:20.214Z,3.40
2018-12-31T08:52:47.886Z,3.40
2018-12-31T08:55:15.398Z,3.40
2018-12-31T08:57:42.955Z,3.40
2018-12-31T09:00:10.460Z,3.40
2018-12-31T09:02:38.035Z,3.50
2018-12-31T09:05:05.628Z,3.50
2018-12-31T09:07:33.116Z,3.50
2018-12-31T09:10:00.685Z,3.60
2018-12-31T09:12:28.241Z,3.50
2018-12-31T09:14:55.776Z,3.50
2018-12-31T09:17:23.312Z,3.60
2018-12-31T09:19:50.852Z,3.60
2018-12-31T09:22:18.398Z,3.70
2018-12-31T09:24:45.922Z,3.70
2018-12-31T09:27:13.474Z,3.70
2018-12-31T09:29:40.973Z,3.70
2018-12-31T09:32:08.495Z,3.70
2018-12-31T09:34:36.066Z,3.70
2018-12-31T09:37:03.619Z,3.80
2018-12-31T09:39:31.176Z,3.80
2018-12-31T09:41:58.727Z,3.90
2018-12-31T09:44:26.350Z,3.80
2018-12-31T09:46:53.918Z,3.90
2018-12-31T09:49:21.488Z,4.00
2018-12-31T09:51:49.006Z,3.90
2018-12-31T09:54:16.511Z,3.90
2018-12-31T09:56:44.136Z,3.90
2018-12-31T09:59:11.656Z,4.00
2018-12-31T10:01:39.159Z,4.10
2018-12-31T10:04:06.768Z,4.20
2018-12-31T10:06:34.306Z,4.10
2018-12-31T10:09:01.834Z,4.20
2018-12-31T10:11:29.444Z,4.20
2018-12-31T10:13:56.958Z,4.20
2018-12-31T10:16:24.496Z,4.20
2018-12-31T10:18:52.088Z,4.30
2018-12-31T10:21:19.608Z,4.30
2018-12-31T10:23:47.126Z,4.30
2018-12-31T10:26:14.706Z,4.40
2018-12-31T10:28:42.230Z,4.40
2018-12-31T10:31:09.754Z,4.50
2018-12-31T10:33:37.356Z,4.60
2018-12-31T10:36:04.924Z,4.50
2018-12-31T10:38:32.532Z,4.50
2018-12-31T10:41:00.093Z,4.30
2018-12-31T10:43:27.662Z,4.20
2018-12-31T10:45:55.214Z,4.30
2018-12-31T10:48:22.821Z,4.50
2018-12-31T10:50:50.423Z,4.50
2018-12-31T10:53:17.964Z,4.50
2018-12-31T10:55:45.652Z,4.70
2018-12-31T10:58:13.320Z,4.70
2018-12-31T11:00:40.882Z,4.70
2018-12-31T11:03:08.460Z,4.80
2018-12-31T11:05:36.053Z,4.80
2018-12-31T11:08:03.625Z,4.80
2018-12-31T11:10:31.224Z,4.90
2018-12-31T11:12:58.780Z,4.90
2018-12-31T11:15:26.293Z,4.90
2018-12-31T11:17:53.963Z,4.90
2018-12-31T11:20:21.516Z,5.00
2018-12-31T11:22:49.052Z,4.90
2018-12-31T11:25:16.631Z,4.90
2018-12-31T11:27:44.152Z,4.90
2018-12-31T11:30:11.760Z,5.00
2018-12-31T11:32:39.314Z,4.90
2018-12-31T11:35:06.875Z,4.90
2018-12-31T11:37:34.835Z,5.00
2018-12-31T11:40:02.588Z,5.00
2018-12-31T11:42:30.103Z,5.00
2018-12-31T11:44:57.692Z,5.10
2018-12-31T11:47:25.212Z,5.10
2018-12-31T11:49:52.949Z,5.20
2018-12-31T11:52:20.503Z,5.20
2018-12-31T11:54:48.008Z,5.20
2018-12-31T11:57:15.534Z,5.20
2018-12-31T11:59:43.102Z,5.30
2018-12-31T12:02:10.613Z,5.30
2018-12-31T12:04:38.157Z,5.20
2018-12-31T12:07:05.779Z,5.20
2018-12-31T12:09:33.329Z,5.10
2018-12-31T12:12:00.855Z,5.10
2018-12-31T12:14:28.450Z,5.10
2018-12-31T12:16:56.010Z,5.00
2018-12-31T12:19:23.527Z,5.10
2018-12-31T12:21:51.095Z,5.10
2018-12-31T12:24:18.648Z,5.10
2018-12-31T12:26:46.199Z,5.10
2018-12-31T12:29:14.005Z,5.10
2018-12-31T12:31:41.559Z,5.10
2018-12-31T12:34:09.114Z,5.10
2018-12-31T12:36:36.691Z,5.00
2018-12-31T12:39:08.317Z,5.10
2018-12-31T12:41:35.874Z,5.00
2018-12-31T12:44:03.560Z,5.20
2018-12-31T12:46:31.092Z,4.90
2018-12-31T12:48:58.697Z,4.90
2018-12-31T12:51:26.309Z,4.80
2018-12-31T12:53:53.816Z,4.90
2018-12-31T12:56:21.765Z,4.80
2018-12-31T12:58:49.466Z,4.80
2018-12-31T13:01:17.004Z,4.80
2018-12-31T13:03:44.551Z,4.70
2018-12-31T13:06:12.144Z,4.80
2018-12-31T13:08:39.697Z,4.80
2018-12-31T13:11:07.252Z,4.80
2018-12-31T13:13:34.829Z,4.80
2018-12-31T13:16:02.405Z,4.90
2018-12-31T13:18:29.947Z,4.80
2018-12-31T13:20:57.526Z,4.80
2018-12-31T13:23:25.434Z,4.80
2018-12-31T13:25:52.942Z,4.60
2018-12-31T13:28:20.503Z,4.70
2018-12-31T13:30:48.014Z,4.80
2018-12-31T13:33:15.561Z,4.70
2018-12-31T13:35:43.116Z,4.70
2018-12-31T13:38:10.631Z,4.60
2018-12-31T13:40:38.199Z,4.60
2018-12-31T13:43:05.765Z,4.50
2018-12-31T13:45:33.278Z,4.60
2018-12-31T13:48:01.519Z,4.50
2018-12-31T13:50:29.324Z,4.50
2018-12-31T13:52:56.956Z,4.50
2018-12-31T13:55:24.452Z,4.50
2018-12-31T13:57:51.971Z,4.50
2018-12-31T14:00:19.519Z,4.60
2018-12-31T14:02:47.020Z,4.50
2018-12-31T14:05:16.371Z,4.50
2018-12-31T14:07:43.916Z,4.50
2018-12-31T14:10:11.430Z,4.40
2018-12-31T14:12:38.950Z,4.50
2018-12-31T14:15:06.464Z,4.50
2018-12-31T14:17:34.192Z,4.30
2018-12-31T14:20:01.714Z,4.30
2018-12-31T14:22:30.270Z,4.20
2018-12-31T14:24:57.915Z,4.10
2018-12-31T14:27:25.458Z,3.90
2018-12-31T14:29:53.021Z,3.90
2018-12-31T14:32:20.551Z,3.80
2018-12-31T14:34:48.116Z,3.80
2018-12-31T14:37:15.652Z,3.70
2018-12-31T14:39:43.179Z,3.70
2018-12-31T14:42:10.748Z,3.70
2018-12-31T14:44:39.806Z,3.60
2018-12-31T14:47:07.335Z,3.60
2018-12-31T14:49:34.940Z,3.60
2018-12-31T14:52:02.457Z,3.60
2018-12-31T14:54:29.980Z,3.60
2018-12-31T14:56:57.818Z,3.70
2018-12-31T14:59:25.330Z,3.60
2018-12-31T15:01:52.844Z,3.60
2018-12-31T15:04:20.414Z,3.60
2018-12-31T15:06:47.959Z,3.60
2018-12-31T15:09:15.485Z,3.60
2018-12-31T15:11:43.410Z,3.60
2018-12-31T15:14:10.960Z,3.60
2018-12-31T15:16:38.484Z,3.60
2018-12-31T15:19:06.072Z,3.70
2018-12-31T15:21:33.618Z,3.60
2018-12-31T15:24:01.160Z,3.50
2018-12-31T15:26:28.771Z,3.70
2018-12-31T15:28:56.336Z,3.50
2018-12-31T15:31:23.896Z,3.50
2018-12-31T15:33:51.432Z,3.40
2018-12-31T15:36:19.000Z,3.40
2018-12-31T15:38:46.816Z,3.30
2018-12-31T15:41:14.356Z,3.30
2018-12-31T15:43:41.940Z,3.30
2018-12-31T15:46:09.460Z,3.20
2018-12-31T15:48:37.058Z,3.20
2018-12-31T15:51:04.665Z,3.30
2018-12-31T15:53:32.536Z,3.30
2018-12-31T15:56:00.078Z,3.30
2018-12-31T15:58:27.684Z,3.20
2018-12-31T16:00:55.298Z,3.30
2018-12-31T16:03:22.830Z,3.30
2018-12-31T16:05:50.453Z,3.30
2018-12-31T16:08:18.096Z,3.20
2018-12-31T16:10:45.641Z,3.30
2018-12-31T16:13:13.282Z,3.30
2018-12-31T16:15:40.760Z,3.20
2018-12-31T16:18:08.320Z,3.40
2018-12-31T16:20:36.312Z,3.40
2018-12-31T16:23:03.842Z,3.30
2018-12-31T16:25:31.390Z,3.30
2018-12-31T16:27:59.881Z,3.30
2018-12-31T16:30:27.426Z,3.40
2018-12-31T16:32:54.972Z,3.30
2018-12-31T16:35:22.556Z,3.50
2018-12-31T16:37:50.141Z,3.30
2018-12-31T16:40:17.662Z,3.20
2018-12-31T16:42:45.224Z,3.30
2018-12-31T16:45:12.754Z,3.20
2018-12-31T16:47:40.296Z,3.20
2018-12-31T16:50:07.854Z,3.20
2018-12-31T16:52:35.463Z,3.20
2018-12-31T16:55:03.037Z,3.20
2018-12-31T16:57:30.635Z,3.20
2018-12-31T16:59:58.168Z,3.20
2018-12-31T17:02:26.168Z,3.20
2018-12-31T17:04:53.756Z,3.20
2018-12-31T17:07:28.004Z,3.20
2018-12-31T17:09:50.668Z,3.20
2018-12-31T17:12:18.236Z,3.20
2018-12-31T17:14:45.904Z,3.20
2018-12-31T17:17:13.790Z,3.10
2018-12-31T17:19:41.825Z,3.10
2018-12-31T17:22:09.452Z,3.10
2018-12-31T17:24:37.104Z,3.10
2018-12-31T17:27:05.910Z,3.10
2018-12-31T17:29:33.834Z,3.10
2018-12-31T17:32:01.972Z,3.10
2018-12-31T17:34:29.501Z,3.10
2018-12-31T17:36:58.174Z,3.10
2018-12-31T17:39:25.698Z,3.00
2018-12-31T17:41:53.235Z,3.00
2018-12-31T17:44:21.070Z,3.00
2018-12-31T17:46:48.668Z,3.00
2018-12-31T17:49:16.225Z,3.00
2018-12-31T17:51:43.795Z,3.10
2018-12-31T17:54:11.392Z,3.10
2018-12-31T17:56:38.946Z,3.10
2018-12-31T17:59:06.584Z,3.10
2018-12-31T18:01:34.114Z,3.00
2018-12-31T18:04:01.678Z,3.10
2018-12-31T18:06:29.467Z,3.10
2018-12-31T18:08:57.532Z,3.40
2018-12-31T18:11:25.108Z,3.20
2018-12-31T18:13:52.700Z,3.10
2018-12-31T18:16:20.207Z,3.20
2018-12-31T18:18:47.710Z,3.20
2018-12-31T18:21:15.342Z,3.20
2018-12-31T18:23:42.823Z,3.20
2018-12-31T18:26:10.582Z,3.20
2018-12-31T18:28:38.311Z,3.30
2018-12-31T18:31:05.903Z,3.30
2018-12-31T18:33:33.452Z,3.40
2018-12-31T18:36:00.978Z,3.30
2018-12-31T18:38:28.494Z,3.40
2018-12-31T18:40:56.028Z,3.40
2018-12-31T18:43:23.554Z,3.40
2018-12-31T18:45:51.058Z,3.40
2018-12-31T18:48:18.602Z,3.30
2018-12-31T18:50:46.173Z,3.30
2018-12-31T18:53:13.803Z,3.10
2018-12-31T18:55:41.369Z,3.20
2018-12-31T18:58:08.872Z,3.30
2018-12-31T19:00:36.392Z,3.20
2018-12-31T19:03:03.960Z,3.20
2018-12-31T19:05:31.463Z,3.20
2018-12-31T19:07:59.270Z,3.20
2018-12-31T19:10:26.834Z,3.10
2018-12-31T19:12:54.324Z,3.20
2018-12-31T19:15:21.841Z,3.20
2018-12-31T19:17:49.392Z,3.20
2018-12-31T19:20:16.884Z,3.10
2018-12-31T19:22:44.580Z,3.30
2018-12-31T19:25:12.119Z,3.30
2018-12-31T19:27:39.616Z,3.30
2018-12-31T19:30:07.395Z,3.30
2018-12-31T19:32:34.952Z,3.20
2018-12-31T19:35:02.470Z,3.30
2018-12-31T19:37:30.012Z,3.30
2018-12-31T19:39:57.511Z,3.30
2018-12-31T19:42:25.020Z,3.40
2018-12-31T19:44:52.539Z,3.40
2018-12-31T19:47:20.069Z,3.40
2018-12-31T19:49:47.572Z,3.40
2018-12-31T19:52:15.134Z,3.50
2018-12-31T19:54:42.692Z,3.50
2018-12-31T19:57:10.246Z,3.50
2018-12-31T19:59:37.741Z,3.50
2018-12-31T20:02:05.251Z,3.60
2018-12-31T20:04:32.978Z,3.60
2018-12-31T20:07:01.299Z,3.60
2018-12-31T20:09:29.149Z,3.70
2018-12-31T20:11:56.636Z,3.70
2018-12-31T20:14:24.161Z,3.80
2018-12-31T20:16:51.698Z,3.70
2018-12-31T20:19:19.496Z,3.70
2018-12-31T20:21:47.041Z,3.70
2018-12-31T20:24:14.559Z,3.80
2018-12-31T20:26:42.078Z,3.70
2018-12-31T20:29:09.643Z,3.80
2018-12-31T20:31:37.149Z,3.70
2018-12-31T20:34:05.067Z,3.70
2018-12-31T20:36:32.601Z,3.70
2018-12-31T20:39:00.123Z,3.70
2018-12-31T20:41:27.639Z,3.70
2018-12-31T20:43:55.198Z,3.70
2018-12-31T20:46:22.712Z,3.70
2018-12-31T20:48:50.217Z,3.70
2018-12-31T20:51:17.807Z,3.70
2018-12-31T20:53:45.371Z,3.70
2018-12-31T20:56:12.882Z,3.70
2018-12-31T20:58:40.479Z,3.70
2018-12-31T21:01:08.075Z,3.90
2018-12-31T21:03:35.575Z,3.70
2018-12-31T21:06:03.108Z,3.80
2018-12-31T21:08:42.916Z,3.80
2018-12-31T21:11:10.425Z,4.00
2018-12-31T21:13:37.961Z,3.80
2018-12-31T21:16:05.653Z,3.70
2018-12-31T21:18:33.153Z,3.70
2018-12-31T21:21:00.713Z,3.70
2018-12-31T21:23:28.282Z,3.80
2018-12-31T21:25:55.787Z,3.80
2018-12-31T21:28:23.307Z,3.80
2018-12-31T21:30:51.279Z,3.90
2018-12-31T21:33:18.797Z,3.80
2018-12-31T21:35:46.348Z,3.80
2018-12-31T21:38:14.036Z,3.80
2018-12-31T21:40:41.577Z,3.80
2018-12-31T21:43:09.091Z,3.80
2018-12-31T21:45:36.781Z,3.70
2018-12-31T21:48:04.327Z,3.80
2018-12-31T21:50:31.917Z,3.70
2018-12-31T21:52:59.529Z,3.70
2018-12-31T21:55:27.051Z,3.70
2018-12-31T21:57:54.611Z,3.60
2018-12-31T22:00:22.347Z,3.70
2018-12-31T22:02:56.838Z,3.70
2018-12-31T22:05:19.203Z,3.60
2018-12-31T22:07:46.785Z,3.70
2018-12-31T22:10:14.805Z,3.70
2018-12-31T22:12:42.785Z,3.90
2018-12-31T22:15:10.363Z,3.70
2018-12-31T22:17:37.870Z,3.70
2018-12-31T22:20:07.122Z,3.70
2018-12-31T22:22:34.792Z,3.70
2018-12-31T22:25:02.321Z,3.70
2018-12-31T22:27:31.185Z,3.70
2018-12-31T22:29:58.687Z,3.70
2018-12-31T22:32:26.219Z,3.70
2018-12-31T22:34:53.713Z,3.70
2018-12-31T22:37:21.177Z,3.60
2018-12-31T22:39:48.694Z,3.80
2018-12-31T22:42:16.371Z,3.50
2018-12-31T22:44:43.996Z,3.60
2018-12-31T22:47:11.552Z,3.60
2018-12-31T22:49:39.114Z,3.60
2018-12-31T22:52:06.622Z,3.50
2018-12-31T22:54:34.187Z,3.50
2018-12-31T22:57:01.719Z,3.50
2018-12-31T22:59:29.235Z,3.40
2018-12-31T23:01:56.847Z,3.50
2018-12-31T23:04:24.393Z,3.50
2018-12-31T23:06:55.762Z,3.40
2018-12-31T23:09:23.632Z,3.40
2018-12-31T23:11:51.172Z,3.40
2018-12-31T23:14:18.672Z,3.40
2018-12-31T23:16:49.592Z,3.30
2018-12-31T23:19:17.098Z,3.30
2018-12-31T23:21:44.584Z,3.20
2018-12-31T23:24:12.113Z,3.20
2018-12-31T23:26:39.651Z,3.20
2018-12-31T23:29:07.184Z,3.10
2018-12-31T23:31:34.846Z,3.10
2018-12-31T23:34:02.574Z,3.10
2018-12-31T23:36:30.085Z,3.20
2018-12-31T23:39:05.003Z,3.10
2018-12-31T23:41:26.987Z,3.10
2018-12-31T23:43:54.496Z,3.00
2018-12-31T23:46:22.058Z,3.00
2018-12-31T23:48:49.587Z,3.00
2018-12-31T23:51:19.674Z,3.00
2018-12-31T23:53:47.220Z,2.90
2018-12-31T23:56:14.750Z,3.10
2018-12-31T23:58:42.270Z,3.00
